This is the latest recevied weather packets stored in our database for station/object HP1COO-13. If no packets are shown the sender has not sent any weather packets the latest 10 day(s).
| Time | Temp. | Humidity | Pressure | Rain* | Wind** | Luminosity | Snow |
|---|---|---|---|---|---|---|---|
| 1778116882 | 27.22° C | 89% | 1008.2 hPa | 0 mm | - | - | - |
| 1778116249 | 26.67° C | 90% | 1008.2 hPa | 0 mm | - | - | - |
| 1778115616 | 26.67° C | 89% | 1008.2 hPa | 0 mm | - | - | - |
| 1778114350 | 27.22° C | 89% | 1007.9 hPa | 0 mm | - | - | - |
| 1778113870 | 27.22° C | 89% | 1008 hPa | 0 mm | - | - | - |
| 1778113630 | 27.22° C | 89% | 1008 hPa | 0 mm | - | - | - |
| 1778113510 | 27.22° C | 89% | 1008 hPa | 0 mm | - | - | - |
| 1778112808 | 27.22° C | 89% | 1007.8 hPa | 0 mm | - | - | - |
| 1778112175 | 27.78° C | 89% | 1008 hPa | 0 mm | - | - | - |
| 1778111542 | 27.78° C | 89% | 1007.9 hPa | 0 mm | - | - | - |
| 1778110909 | 27.78° C | 91% | 1007.8 hPa | 0 mm | - | - | - |
| 1778110276 | 28.33° C | 90% | 1007.8 hPa | 0 mm | - | - | - |
| 1778109644 | 28.33° C | 91% | 1007.6 hPa | 0 mm | - | - | - |
| 1778109010 | 28.33° C | 91% | 1007.7 hPa | 0 mm | - | - | - |
| 1778108377 | 28.33° C | 91% | 1007.3 hPa | 0.25 mm | - | - | - |
| 1778107111 | 28.33° C | 91% | 1007.2 hPa | 1.27 mm | - | - | - |
| 1778106478 | 27.78° C | 92% | 1007.3 hPa | 1.27 mm | - | - | - |
| 1778105845 | 27.78° C | 91% | 1007.4 hPa | 1.27 mm | - | - | - |
| 1778105212 | 28.89° C | 89% | 1007.1 hPa | 1.02 mm | - | - | - |
| 1778104579 | 30° C | 87% | 1006.9 hPa | 0.76 mm | - | - | - |
| 1778103946 | 30.56° C | 82% | 1006.8 hPa | 0 mm | - | - | - |
| 1778103313 | 31.11° C | 79% | 1006.8 hPa | 0 mm | - | - | - |
| 1778102680 | 31.11° C | 79% | 1006.7 hPa | 0 mm | - | - | - |
| 1778102047 | 30.56° C | 81% | 1006.9 hPa | 0 mm | - | - | - |
| 1778101414 | 30° C | 85% | 1006.9 hPa | 0 mm | - | - | - |
* Rain latest hour (hover to see other rain measurements)
** Current wind speed in m/s (hover to see current wind gust speed)